sensor_id;sensor_type;location;lat;lon;timestamp;pressure;altitude;pressure_sealevel;temperature;humidity
72226;BME280;60130;52.250;5.048;2022-12-16T00:00:00;1009.7;;;1.3;91.1
72226;BME280;60130;52.250;5.048;2022-12-16T00:05:00;1009.7;;;1.4;91.0
72226;BME280;60130;52.250;5.048;2022-12-16T00:10:00;1009.7;;;1.3;91.2
72226;BME280;60130;52.250;5.048;2022-12-16T00:15:00;1009.6;;;1.5;91.7
72226;BME280;60130;52.250;5.048;2022-12-16T00:20:00;1009.6;;;1.8;92.1
72226;BME280;60130;52.250;5.048;2022-12-16T00:25:00;1009.6;;;2.0;91.9
72226;BME280;60130;52.250;5.048;2022-12-16T00:30:00;1009.6;;;2.1;91.5
72226;BME280;60130;52.250;5.048;2022-12-16T00:35:00;1009.7;;;2.3;91.5
72226;BME280;60130;52.250;5.048;2022-12-16T00:40:00;1009.7;;;2.3;91.3
72226;BME280;60130;52.250;5.048;2022-12-16T00:45:00;1009.7;;;2.4;90.6
72226;BME280;60130;52.250;5.048;2022-12-16T00:50:00;1009.8;;;2.3;90.5
72226;BME280;60130;52.250;5.048;2022-12-16T00:55:00;1009.9;;;2.4;90.5
72226;BME280;60130;52.250;5.048;2022-12-16T01:00:00;1009.9;;;2.4;90.2
72226;BME280;60130;52.250;5.048;2022-12-16T01:05:00;1010.0;;;2.4;90.4
72226;BME280;60130;52.250;5.048;2022-12-16T01:10:00;1010.0;;;2.3;90.0
72226;BME280;60130;52.250;5.048;2022-12-16T01:15:00;1010.1;;;2.4;90.1
72226;BME280;60130;52.250;5.048;2022-12-16T01:20:00;1010.2;;;2.5;89.8
72226;BME280;60130;52.250;5.048;2022-12-16T01:25:00;1010.2;;;2.6;89.6
72226;BME280;60130;52.250;5.048;2022-12-16T01:30:00;1010.4;;;2.5;88.8
72226;BME280;60130;52.250;5.048;2022-12-16T01:35:00;1010.3;;;2.5;88.7
72226;BME280;60130;52.250;5.048;2022-12-16T01:40:00;1010.4;;;2.4;88.6
72226;BME280;60130;52.250;5.048;2022-12-16T01:50:02;1010.6;;;2.3;88.8
72226;BME280;60130;52.250;5.048;2022-12-16T01:55:04;1010.7;;;2.3;88.8
72226;BME280;60130;52.250;5.048;2022-12-16T02:00:01;1010.7;;;2.3;88.4
72226;BME280;60130;52.250;5.048;2022-12-16T02:05:00;1010.7;;;2.3;88.6
72226;BME280;60130;52.250;5.048;2022-12-16T02:10:00;1010.8;;;2.4;88.4
72226;BME280;60130;52.250;5.048;2022-12-16T02:15:06;1010.8;;;2.5;88.1
72226;BME280;60130;52.250;5.048;2022-12-16T02:20:20;1010.8;;;2.5;87.6
72226;BME280;60130;52.250;5.048;2022-12-16T02:25:22;1010.9;;;2.5;87.2
72226;BME280;60130;52.250;5.048;2022-12-16T02:30:06;1011.0;;;2.4;87.1
72226;BME280;60130;52.250;5.048;2022-12-16T02:35:08;1011.0;;;2.4;87.1
72226;BME280;60130;52.250;5.048;2022-12-16T02:40:02;1011.1;;;2.3;87.2
72226;BME280;60130;52.250;5.048;2022-12-16T02:45:02;1011.1;;;2.3;86.9
72226;BME280;60130;52.250;5.048;2022-12-16T02:50:00;1011.1;;;2.2;87.0
72226;BME280;60130;52.250;5.048;2022-12-16T02:55:01;1011.2;;;2.0;87.4
72226;BME280;60130;52.250;5.048;2022-12-16T03:00:04;1011.2;;;2.0;87.2
72226;BME280;60130;52.250;5.048;2022-12-16T03:05:04;1011.3;;;2.0;87.1
72226;BME280;60130;52.250;5.048;2022-12-16T03:10:01;1011.4;;;2.0;86.8
72226;BME280;60130;52.250;5.048;2022-12-16T03:15:00;1011.5;;;2.0;86.6
72226;BME280;60130;52.250;5.048;2022-12-16T03:20:06;1011.5;;;2.0;86.5
72226;BME280;60130;52.250;5.048;2022-12-16T03:25:00;1011.5;;;1.9;86.3
72226;BME280;60130;52.250;5.048;2022-12-16T03:30:03;1011.6;;;1.9;86.4
72226;BME280;60130;52.250;5.048;2022-12-16T03:35:01;1011.6;;;1.9;86.2
72226;BME280;60130;52.250;5.048;2022-12-16T03:40:02;1011.6;;;1.8;85.9
72226;BME280;60130;52.250;5.048;2022-12-16T03:45:01;1011.7;;;1.6;86.0
72226;BME280;60130;52.250;5.048;2022-12-16T03:50:00;1011.8;;;1.5;86.3
72226;BME280;60130;52.250;5.048;2022-12-16T03:55:00;1011.8;;;1.5;86.3
72226;BME280;60130;52.250;5.048;2022-12-16T04:00:00;1011.8;;;1.5;86.5
72226;BME280;60130;52.250;5.048;2022-12-16T04:05:00;1011.8;;;1.5;86.8
72226;BME280;60130;52.250;5.048;2022-12-16T04:10:00;1011.8;;;1.7;87.2
72226;BME280;60130;52.250;5.048;2022-12-16T04:15:00;1011.9;;;1.7;86.8
72226;BME280;60130;52.250;5.048;2022-12-16T04:20:00;1011.9;;;1.6;86.7
72226;BME280;60130;52.250;5.048;2022-12-16T04:25:04;1011.9;;;1.5;86.7
72226;BME280;60130;52.250;5.048;2022-12-16T04:30:00;1011.9;;;1.4;86.7
72226;BME280;60130;52.250;5.048;2022-12-16T04:35:00;1012.0;;;1.4;87.0
72226;BME280;60130;52.250;5.048;2022-12-16T04:40:00;1012.1;;;1.4;86.5
72226;BME280;60130;52.250;5.048;2022-12-16T04:45:00;1012.1;;;1.1;85.9
72226;BME280;60130;52.250;5.048;2022-12-16T04:50:00;1012.2;;;0.8;86.0
72226;BME280;60130;52.250;5.048;2022-12-16T04:55:00;1012.2;;;0.7;86.6
72226;BME280;60130;52.250;5.048;2022-12-16T05:00:00;1012.2;;;0.6;87.2
72226;BME280;60130;52.250;5.048;2022-12-16T05:05:00;1012.2;;;0.7;87.5
72226;BME280;60130;52.250;5.048;2022-12-16T05:10:00;1012.2;;;0.7;87.1
72226;BME280;60130;52.250;5.048;2022-12-16T05:15:00;1012.2;;;0.5;87.1
72226;BME280;60130;52.250;5.048;2022-12-16T05:20:00;1012.3;;;0.4;87.3
72226;BME280;60130;52.250;5.048;2022-12-16T05:25:00;1012.4;;;0.3;87.1
72226;BME280;60130;52.250;5.048;2022-12-16T05:30:00;1012.4;;;0.2;87.9
72226;BME280;60130;52.250;5.048;2022-12-16T05:35:00;1012.5;;;0.1;88.1
72226;BME280;60130;52.250;5.048;2022-12-16T05:40:00;1012.5;;;0.0;88.0
72226;BME280;60130;52.250;5.048;2022-12-16T05:45:00;1012.6;;;-0.0;88.5
72226;BME280;60130;52.250;5.048;2022-12-16T05:50:00;1012.7;;;0.0;88.7
72226;BME280;60130;52.250;5.048;2022-12-16T05:55:00;1012.7;;;-0.1;88.9
72226;BME280;60130;52.250;5.048;2022-12-16T06:00:00;1012.7;;;-0.1;88.5
72226;BME280;60130;52.250;5.048;2022-12-16T06:05:00;1012.7;;;-0.2;88.3
72226;BME280;60130;52.250;5.048;2022-12-16T06:10:00;1012.8;;;-0.2;88.7
72226;BME280;60130;52.250;5.048;2022-12-16T06:15:00;1012.9;;;-0.2;88.4
72226;BME280;60130;52.250;5.048;2022-12-16T06:20:00;1012.9;;;-0.2;88.5
72226;BME280;60130;52.250;5.048;2022-12-16T06:25:00;1013.0;;;-0.2;88.7
72226;BME280;60130;52.250;5.048;2022-12-16T06:30:00;1013.0;;;-0.2;88.7
72226;BME280;60130;52.250;5.048;2022-12-16T06:35:00;1013.1;;;-0.1;88.6
72226;BME280;60130;52.250;5.048;2022-12-16T06:40:00;1013.1;;;-0.2;88.2
72226;BME280;60130;52.250;5.048;2022-12-16T06:45:00;1013.2;;;-0.3;88.0
72226;BME280;60130;52.250;5.048;2022-12-16T06:50:00;1013.3;;;-0.4;88.1
72226;BME280;60130;52.250;5.048;2022-12-16T06:55:00;1013.3;;;-0.4;87.8
72226;BME280;60130;52.250;5.048;2022-12-16T07:00:00;1013.4;;;-0.3;88.0
72226;BME280;60130;52.250;5.048;2022-12-16T07:05:00;1013.5;;;-0.3;87.3
72226;BME280;60130;52.250;5.048;2022-12-16T07:10:00;1013.6;;;-0.4;87.2
72226;BME280;60130;52.250;5.048;2022-12-16T07:15:00;1013.6;;;-0.5;86.8
72226;BME280;60130;52.250;5.048;2022-12-16T07:20:00;1013.7;;;-0.6;86.8
72226;BME280;60130;52.250;5.048;2022-12-16T07:25:00;1013.8;;;-0.6;87.4
72226;BME280;60130;52.250;5.048;2022-12-16T07:30:00;1013.8;;;-0.5;88.4
72226;BME280;60130;52.250;5.048;2022-12-16T07:35:00;1013.9;;;-0.4;87.7
72226;BME280;60130;52.250;5.048;2022-12-16T07:40:00;1013.9;;;-0.4;87.6
72226;BME280;60130;52.250;5.048;2022-12-16T07:45:00;1014.0;;;-0.4;87.3
72226;BME280;60130;52.250;5.048;2022-12-16T07:50:00;1014.0;;;-0.5;86.9
72226;BME280;60130;52.250;5.048;2022-12-16T07:55:00;1014.0;;;-0.5;87.0
72226;BME280;60130;52.250;5.048;2022-12-16T08:00:00;1014.2;;;-0.6;86.8
72226;BME280;60130;52.250;5.048;2022-12-16T08:05:00;1014.3;;;-0.6;87.2
72226;BME280;60130;52.250;5.048;2022-12-16T08:10:00;1014.4;;;-0.6;87.1
72226;BME280;60130;52.250;5.048;2022-12-16T08:15:00;1014.5;;;-0.5;87.4
72226;BME280;60130;52.250;5.048;2022-12-16T08:20:00;1014.5;;;-0.3;87.2
72226;BME280;60130;52.250;5.048;2022-12-16T08:25:00;1014.5;;;-0.2;87.1
72226;BME280;60130;52.250;5.048;2022-12-16T08:30:00;1014.6;;;-0.0;86.5
72226;BME280;60130;52.250;5.048;2022-12-16T08:35:00;1014.5;;;-0.0;85.8
72226;BME280;60130;52.250;5.048;2022-12-16T08:40:00;1014.6;;;-0.2;85.3
72226;BME280;60130;52.250;5.048;2022-12-16T08:45:00;1014.7;;;-0.2;85.6
72226;BME280;60130;52.250;5.048;2022-12-16T08:50:00;1014.8;;;-0.2;85.1
72226;BME280;60130;52.250;5.048;2022-12-16T08:55:00;1014.8;;;-0.3;85.0
72226;BME280;60130;52.250;5.048;2022-12-16T09:00:00;1014.9;;;-0.3;85.0
72226;BME280;60130;52.250;5.048;2022-12-16T09:05:00;1014.9;;;-0.4;85.2
72226;BME280;60130;52.250;5.048;2022-12-16T09:10:00;1014.9;;;-0.3;85.7
72226;BME280;60130;52.250;5.048;2022-12-16T09:15:00;1015.0;;;-0.1;86.3
72226;BME280;60130;52.250;5.048;2022-12-16T09:20:00;1015.0;;;0.2;86.2
72226;BME280;60130;52.250;5.048;2022-12-16T09:25:00;1015.1;;;0.6;85.8
72226;BME280;60130;52.250;5.048;2022-12-16T09:30:00;1015.2;;;0.9;85.5
72226;BME280;60130;52.250;5.048;2022-12-16T09:35:00;1015.2;;;1.1;85.2
72226;BME280;60130;52.250;5.048;2022-12-16T09:40:00;1015.2;;;1.2;85.2
72226;BME280;60130;52.250;5.048;2022-12-16T09:45:06;1015.3;;;1.4;84.6
72226;BME280;60130;52.250;5.048;2022-12-16T09:50:00;1015.4;;;1.5;83.7
72226;BME280;60130;52.250;5.048;2022-12-16T09:55:00;1015.5;;;1.7;83.8
72226;BME280;60130;52.250;5.048;2022-12-16T10:00:03;1015.6;;;1.9;82.8
72226;BME280;60130;52.250;5.048;2022-12-16T10:05:00;1015.6;;;2.1;82.2
72226;BME280;60130;52.250;5.048;2022-12-16T10:10:10;1015.8;;;2.2;81.8
72226;BME280;60130;52.250;5.048;2022-12-16T10:15:11;1015.8;;;2.5;80.4
72226;BME280;60130;52.250;5.048;2022-12-16T10:20:03;1015.7;;;2.7;79.8
72226;BME280;60130;52.250;5.048;2022-12-16T10:25:05;1015.8;;;2.9;78.7
72226;BME280;60130;52.250;5.048;2022-12-16T10:30:00;1015.8;;;3.0;79.0
72226;BME280;60130;52.250;5.048;2022-12-16T10:35:00;1015.8;;;3.1;78.7
72226;BME280;60130;52.250;5.048;2022-12-16T10:40:00;1015.9;;;3.1;79.0
72226;BME280;60130;52.250;5.048;2022-12-16T10:45:01;1015.9;;;3.2;78.8
72226;BME280;60130;52.250;5.048;2022-12-16T10:50:00;1015.9;;;3.3;78.8
72226;BME280;60130;52.250;5.048;2022-12-16T10:55:06;1015.9;;;3.3;79.1
72226;BME280;60130;52.250;5.048;2022-12-16T11:00:09;1015.9;;;3.4;78.9
72226;BME280;60130;52.250;5.048;2022-12-16T11:05:00;1015.9;;;3.5;79.3
72226;BME280;60130;52.250;5.048;2022-12-16T11:15:00;1015.9;;;3.5;79.8
72226;BME280;60130;52.250;5.048;2022-12-16T11:20:12;1015.9;;;3.5;80.2
72226;BME280;60130;52.250;5.048;2022-12-16T11:25:04;1016.0;;;3.6;80.6
72226;BME280;60130;52.250;5.048;2022-12-16T11:30:03;1016.0;;;3.8;80.2
72226;BME280;60130;52.250;5.048;2022-12-16T11:35:02;1016.0;;;4.2;78.9
72226;BME280;60130;52.250;5.048;2022-12-16T11:40:01;1016.2;;;4.0;79.6
72226;BME280;60130;52.250;5.048;2022-12-16T11:45:02;1016.2;;;3.8;80.0
72226;BME280;60130;52.250;5.048;2022-12-16T11:50:00;1016.2;;;3.8;80.2
72226;BME280;60130;52.250;5.048;2022-12-16T11:55:05;1016.2;;;3.8;80.8
72226;BME280;60130;52.250;5.048;2022-12-16T12:00:02;1016.3;;;3.9;80.7
72226;BME280;60130;52.250;5.048;2022-12-16T12:05:00;1016.3;;;3.9;80.7
72226;BME280;60130;52.250;5.048;2022-12-16T12:10:05;1016.3;;;4.0;80.4
72226;BME280;60130;52.250;5.048;2022-12-16T12:15:05;1016.3;;;4.1;80.5
72226;BME280;60130;52.250;5.048;2022-12-16T12:20:08;1016.3;;;4.1;80.5
72226;BME280;60130;52.250;5.048;2022-12-16T12:25:04;1016.3;;;4.1;80.6
72226;BME280;60130;52.250;5.048;2022-12-16T12:30:02;1016.3;;;4.0;80.9
72226;BME280;60130;52.250;5.048;2022-12-16T12:35:04;1016.3;;;4.0;81.1
72226;BME280;60130;52.250;5.048;2022-12-16T12:40:03;1016.3;;;4.0;81.0
72226;BME280;60130;52.250;5.048;2022-12-16T12:45:13;1016.4;;;3.9;81.3
72226;BME280;60130;52.250;5.048;2022-12-16T12:50:04;1016.4;;;3.9;81.4
72226;BME280;60130;52.250;5.048;2022-12-16T12:55:03;1016.5;;;4.0;81.6
72226;BME280;60130;52.250;5.048;2022-12-16T13:00:02;1016.4;;;4.2;81.0
72226;BME280;60130;52.250;5.048;2022-12-16T13:05:01;1016.5;;;4.3;80.6
72226;BME280;60130;52.250;5.048;2022-12-16T13:10:11;1016.5;;;4.1;80.4
72226;BME280;60130;52.250;5.048;2022-12-16T13:15:02;1016.5;;;3.9;80.7
72226;BME280;60130;52.250;5.048;2022-12-16T13:20:00;1016.5;;;4.3;79.8
72226;BME280;60130;52.250;5.048;2022-12-16T13:25:00;1016.5;;;4.5;78.9
72226;BME280;60130;52.250;5.048;2022-12-16T13:30:03;1016.5;;;4.3;79.0
72226;BME280;60130;52.250;5.048;2022-12-16T13:35:00;1016.5;;;4.1;79.0
72226;BME280;60130;52.250;5.048;2022-12-16T13:40:04;1016.6;;;4.1;78.6
72226;BME280;60130;52.250;5.048;2022-12-16T13:55:05;1016.7;;;3.9;78.5
72226;BME280;60130;52.250;5.048;2022-12-16T14:00:03;1016.8;;;3.8;78.8
72226;BME280;60130;52.250;5.048;2022-12-16T14:05:00;1016.8;;;3.8;78.9
72226;BME280;60130;52.250;5.048;2022-12-16T14:10:00;1016.9;;;3.8;78.7
72226;BME280;60130;52.250;5.048;2022-12-16T14:15:04;1016.9;;;3.7;79.0
72226;BME280;60130;52.250;5.048;2022-12-16T14:20:04;1017.0;;;3.6;78.8
72226;BME280;60130;52.250;5.048;2022-12-16T14:25:03;1017.1;;;3.7;77.4
72226;BME280;60130;52.250;5.048;2022-12-16T14:30:01;1017.1;;;3.7;77.1
72226;BME280;60130;52.250;5.048;2022-12-16T14:35:00;1017.2;;;3.6;77.0
72226;BME280;60130;52.250;5.048;2022-12-16T14:40:00;1017.2;;;3.5;76.6
72226;BME280;60130;52.250;5.048;2022-12-16T14:45:00;1017.3;;;3.3;77.1
72226;BME280;60130;52.250;5.048;2022-12-16T14:50:00;1017.4;;;3.3;77.2
72226;BME280;60130;52.250;5.048;2022-12-16T14:55:08;1017.5;;;3.1;77.5
72226;BME280;60130;52.250;5.048;2022-12-16T15:00:08;1017.5;;;3.0;78.0
72226;BME280;60130;52.250;5.048;2022-12-16T15:05:00;1017.5;;;2.9;78.4
72226;BME280;60130;52.250;5.048;2022-12-16T15:10:00;1017.6;;;2.8;78.8
72226;BME280;60130;52.250;5.048;2022-12-16T15:15:02;1017.7;;;2.7;79.1
72226;BME280;60130;52.250;5.048;2022-12-16T15:20:00;1017.7;;;2.7;79.2
72226;BME280;60130;52.250;5.048;2022-12-16T15:25:00;1017.8;;;2.5;79.7
72226;BME280;60130;52.250;5.048;2022-12-16T15:30:00;1017.8;;;2.4;80.2
72226;BME280;60130;52.250;5.048;2022-12-16T15:35:00;1017.9;;;2.3;80.5
72226;BME280;60130;52.250;5.048;2022-12-16T15:40:00;1018.0;;;2.1;80.9
72226;BME280;60130;52.250;5.048;2022-12-16T15:45:00;1018.0;;;2.0;81.0
72226;BME280;60130;52.250;5.048;2022-12-16T15:50:01;1018.0;;;1.9;81.5
72226;BME280;60130;52.250;5.048;2022-12-16T15:55:00;1018.1;;;1.8;81.7
72226;BME280;60130;52.250;5.048;2022-12-16T16:00:00;1018.2;;;1.7;81.8
72226;BME280;60130;52.250;5.048;2022-12-16T16:05:00;1018.2;;;1.8;81.4
72226;BME280;60130;52.250;5.048;2022-12-16T16:10:13;1018.3;;;1.7;81.4
72226;BME280;60130;52.250;5.048;2022-12-16T16:15:00;1018.4;;;1.7;81.4
72226;BME280;60130;52.250;5.048;2022-12-16T16:20:00;1018.3;;;1.6;81.6
72226;BME280;60130;52.250;5.048;2022-12-16T16:25:00;1018.4;;;1.5;81.8
72226;BME280;60130;52.250;5.048;2022-12-16T16:30:00;1018.4;;;1.5;81.9
72226;BME280;60130;52.250;5.048;2022-12-16T16:35:00;1018.5;;;1.3;82.2
72226;BME280;60130;52.250;5.048;2022-12-16T16:40:00;1018.6;;;1.3;82.1
72226;BME280;60130;52.250;5.048;2022-12-16T16:45:00;1018.7;;;1.1;82.1
72226;BME280;60130;52.250;5.048;2022-12-16T16:50:00;1018.7;;;1.0;81.8
72226;BME280;60130;52.250;5.048;2022-12-16T16:55:00;1018.7;;;0.8;82.4
72226;BME280;60130;52.250;5.048;2022-12-16T17:00:00;1018.8;;;0.3;84.2
72226;BME280;60130;52.250;5.048;2022-12-16T17:05:00;1018.8;;;0.2;85.2
72226;BME280;60130;52.250;5.048;2022-12-16T17:10:00;1019.0;;;0.1;84.9
72226;BME280;60130;52.250;5.048;2022-12-16T17:15:00;1019.0;;;-0.0;85.7
72226;BME280;60130;52.250;5.048;2022-12-16T17:20:00;1019.0;;;0.0;84.3
72226;BME280;60130;52.250;5.048;2022-12-16T17:25:00;1019.0;;;-0.0;85.1
72226;BME280;60130;52.250;5.048;2022-12-16T17:30:00;1019.0;;;0.0;84.9
72226;BME280;60130;52.250;5.048;2022-12-16T17:35:00;1019.0;;;-0.0;85.6
72226;BME280;60130;52.250;5.048;2022-12-16T17:40:00;1019.0;;;-0.1;85.1
72226;BME280;60130;52.250;5.048;2022-12-16T17:45:00;1019.0;;;0.0;85.3
72226;BME280;60130;52.250;5.048;2022-12-16T17:50:00;1019.0;;;-0.0;85.4
72226;BME280;60130;52.250;5.048;2022-12-16T17:55:00;1019.1;;;-0.1;85.2
72226;BME280;60130;52.250;5.048;2022-12-16T18:00:00;1019.1;;;-0.5;85.9
72226;BME280;60130;52.250;5.048;2022-12-16T18:05:00;1019.2;;;-0.6;85.9
72226;BME280;60130;52.250;5.048;2022-12-16T18:10:00;1019.3;;;-0.8;86.6
72226;BME280;60130;52.250;5.048;2022-12-16T18:15:00;1019.4;;;-1.0;85.8
72226;BME280;60130;52.250;5.048;2022-12-16T18:20:00;1019.5;;;-1.0;86.5
72226;BME280;60130;52.250;5.048;2022-12-16T18:25:00;1019.5;;;-0.9;86.5
72226;BME280;60130;52.250;5.048;2022-12-16T18:30:00;1019.6;;;-0.9;86.3
72226;BME280;60130;52.250;5.048;2022-12-16T18:35:00;1019.6;;;-0.9;85.6
72226;BME280;60130;52.250;5.048;2022-12-16T18:40:00;1019.6;;;-1.3;86.7
72226;BME280;60130;52.250;5.048;2022-12-16T18:45:00;1019.7;;;-1.5;87.6
72226;BME280;60130;52.250;5.048;2022-12-16T18:50:00;1019.6;;;-1.5;87.0
72226;BME280;60130;52.250;5.048;2022-12-16T18:55:00;1019.6;;;-1.4;88.0
72226;BME280;60130;52.250;5.048;2022-12-16T19:00:00;1019.6;;;-1.2;87.0
72226;BME280;60130;52.250;5.048;2022-12-16T19:05:00;1019.6;;;-1.2;87.1
72226;BME280;60130;52.250;5.048;2022-12-16T19:10:00;1019.7;;;-1.6;87.4
72226;BME280;60130;52.250;5.048;2022-12-16T19:15:00;1019.8;;;-1.6;87.5
72226;BME280;60130;52.250;5.048;2022-12-16T19:20:00;1019.8;;;-1.8;88.4
72226;BME280;60130;52.250;5.048;2022-12-16T19:25:00;1019.8;;;-1.8;88.3
72226;BME280;60130;52.250;5.048;2022-12-16T19:30:00;1019.8;;;-1.7;88.8
72226;BME280;60130;52.250;5.048;2022-12-16T19:35:00;1019.9;;;-2.0;87.8
72226;BME280;60130;52.250;5.048;2022-12-16T19:40:00;1020.0;;;-2.1;87.9
72226;BME280;60130;52.250;5.048;2022-12-16T19:45:00;1020.0;;;-2.3;87.9
72226;BME280;60130;52.250;5.048;2022-12-16T19:50:00;1020.1;;;-2.4;88.9
72226;BME280;60130;52.250;5.048;2022-12-16T19:55:00;1020.1;;;-2.4;88.8
72226;BME280;60130;52.250;5.048;2022-12-16T20:00:00;1020.2;;;-2.3;88.6
72226;BME280;60130;52.250;5.048;2022-12-16T20:05:00;1020.2;;;-2.3;88.1
72226;BME280;60130;52.250;5.048;2022-12-16T20:10:00;1020.3;;;-2.5;87.7
72226;BME280;60130;52.250;5.048;2022-12-16T20:15:00;1020.4;;;-2.6;87.9
72226;BME280;60130;52.250;5.048;2022-12-16T20:20:00;1020.4;;;-2.5;88.2
72226;BME280;60130;52.250;5.048;2022-12-16T20:25:00;1020.5;;;-2.2;88.7
72226;BME280;60130;52.250;5.048;2022-12-16T20:30:00;1020.5;;;-2.0;89.6
72226;BME280;60130;52.250;5.048;2022-12-16T20:35:00;1020.5;;;-1.7;89.3
72226;BME280;60130;52.250;5.048;2022-12-16T20:40:00;1020.6;;;-1.3;89.0
72226;BME280;60130;52.250;5.048;2022-12-16T20:45:00;1020.6;;;-1.0;89.0
72226;BME280;60130;52.250;5.048;2022-12-16T20:50:00;1020.8;;;-0.6;88.8
72226;BME280;60130;52.250;5.048;2022-12-16T20:55:00;1020.8;;;-0.4;88.5
72226;BME280;60130;52.250;5.048;2022-12-16T21:00:00;1020.9;;;-0.3;89.3
72226;BME280;60130;52.250;5.048;2022-12-16T21:05:01;1020.9;;;-0.3;89.6
72226;BME280;60130;52.250;5.048;2022-12-16T21:10:00;1021.0;;;-0.3;90.8
72226;BME280;60130;52.250;5.048;2022-12-16T21:15:00;1021.1;;;-0.2;90.6
72226;BME280;60130;52.250;5.048;2022-12-16T21:20:00;1021.1;;;-0.2;91.0
72226;BME280;60130;52.250;5.048;2022-12-16T21:25:00;1021.1;;;-0.2;91.5
72226;BME280;60130;52.250;5.048;2022-12-16T21:30:00;1021.2;;;-0.3;91.7
72226;BME280;60130;52.250;5.048;2022-12-16T21:35:00;1021.3;;;-0.2;92.2
72226;BME280;60130;52.250;5.048;2022-12-16T21:40:00;1021.3;;;-0.1;92.1
72226;BME280;60130;52.250;5.048;2022-12-16T21:45:00;1021.3;;;-0.2;92.2
72226;BME280;60130;52.250;5.048;2022-12-16T21:50:00;1021.4;;;-0.3;92.6
72226;BME280;60130;52.250;5.048;2022-12-16T21:55:00;1021.4;;;-0.3;92.8
72226;BME280;60130;52.250;5.048;2022-12-16T22:00:00;1021.4;;;-0.3;92.8
72226;BME280;60130;52.250;5.048;2022-12-16T22:05:00;1021.4;;;-0.2;92.5
72226;BME280;60130;52.250;5.048;2022-12-16T22:10:00;1021.5;;;-0.2;92.2
72226;BME280;60130;52.250;5.048;2022-12-16T22:15:00;1021.5;;;-0.2;92.3
72226;BME280;60130;52.250;5.048;2022-12-16T22:20:00;1021.5;;;-0.3;92.7
72226;BME280;60130;52.250;5.048;2022-12-16T22:25:00;1021.6;;;-0.2;92.4
72226;BME280;60130;52.250;5.048;2022-12-16T22:30:00;1021.7;;;-0.2;92.6
72226;BME280;60130;52.250;5.048;2022-12-16T22:35:00;1021.7;;;-0.1;92.5
72226;BME280;60130;52.250;5.048;2022-12-16T22:40:00;1021.7;;;-0.3;92.7
72226;BME280;60130;52.250;5.048;2022-12-16T22:45:00;1021.8;;;-0.1;92.6
72226;BME280;60130;52.250;5.048;2022-12-16T22:50:00;1021.8;;;-0.1;92.4
72226;BME280;60130;52.250;5.048;2022-12-16T22:55:00;1021.9;;;-0.1;92.2
72226;BME280;60130;52.250;5.048;2022-12-16T23:00:00;1022.0;;;0.1;92.0
72226;BME280;60130;52.250;5.048;2022-12-16T23:05:00;1022.1;;;0.1;92.0
72226;BME280;60130;52.250;5.048;2022-12-16T23:10:00;1022.0;;;-0.1;92.1
72226;BME280;60130;52.250;5.048;2022-12-16T23:15:00;1022.1;;;-0.0;92.1
72226;BME280;60130;52.250;5.048;2022-12-16T23:20:00;1022.1;;;0.0;92.1
72226;BME280;60130;52.250;5.048;2022-12-16T23:25:00;1022.0;;;0.1;92.1
72226;BME280;60130;52.250;5.048;2022-12-16T23:30:00;1022.1;;;0.0;92.0
72226;BME280;60130;52.250;5.048;2022-12-16T23:35:00;1022.2;;;-0.1;92.0
72226;BME280;60130;52.250;5.048;2022-12-16T23:40:00;1022.1;;;-0.2;92.7
72226;BME280;60130;52.250;5.048;2022-12-16T23:45:00;1022.0;;;-0.1;92.5
72226;BME280;60130;52.250;5.048;2022-12-16T23:50:00;1022.1;;;-0.1;92.6
72226;BME280;60130;52.250;5.048;2022-12-16T23:55:00;1022.1;;;-0.0;92.5
